sensor_id;sensor_type;location;lat;lon;timestamp;temperature;humidity
7204;DHT22;3643;52.460;13.322;2024-02-26T00:00:33;3.40;99.90
7204;DHT22;3643;52.460;13.322;2024-02-26T00:03:02;3.40;99.90
7204;DHT22;3643;52.460;13.322;2024-02-26T00:05:30;3.40;99.90
7204;DHT22;3643;52.460;13.322;2024-02-26T00:07:59;3.50;99.90
7204;DHT22;3643;52.460;13.322;2024-02-26T00:10:31;3.40;99.90
7204;DHT22;3643;52.460;13.322;2024-02-26T00:12:59;3.50;99.90
7204;DHT22;3643;52.460;13.322;2024-02-26T00:15:28;3.60;99.90
7204;DHT22;3643;52.460;13.322;2024-02-26T00:17:56;3.80;99.90
7204;DHT22;3643;52.460;13.322;2024-02-26T00:20:25;3.80;99.90
7204;DHT22;3643;52.460;13.322;2024-02-26T00:22:52;3.80;99.90
7204;DHT22;3643;52.460;13.322;2024-02-26T00:25:20;3.80;99.90
7204;DHT22;3643;52.460;13.322;2024-02-26T00:27:48;3.70;99.90
7204;DHT22;3643;52.460;13.322;2024-02-26T00:30:16;3.70;99.90
7204;DHT22;3643;52.460;13.322;2024-02-26T00:32:46;4.10;99.90
7204;DHT22;3643;52.460;13.322;2024-02-26T00:35:14;3.70;99.90
7204;DHT22;3643;52.460;13.322;2024-02-26T00:37:43;3.60;99.90
7204;DHT22;3643;52.460;13.322;2024-02-26T00:40:11;3.70;99.90
7204;DHT22;3643;52.460;13.322;2024-02-26T00:42:39;3.70;99.90
7204;DHT22;3643;52.460;13.322;2024-02-26T00:45:12;3.70;99.90
7204;DHT22;3643;52.460;13.322;2024-02-26T00:47:40;3.70;99.90
7204;DHT22;3643;52.460;13.322;2024-02-26T00:50:10;3.90;99.90
7204;DHT22;3643;52.460;13.322;2024-02-26T00:52:38;3.70;99.90
7204;DHT22;3643;52.460;13.322;2024-02-26T00:55:07;3.70;99.90
7204;DHT22;3643;52.460;13.322;2024-02-26T00:57:35;3.60;99.90
7204;DHT22;3643;52.460;13.322;2024-02-26T01:00:04;3.60;99.90
7204;DHT22;3643;52.460;13.322;2024-02-26T01:02:33;3.60;99.90
7204;DHT22;3643;52.460;13.322;2024-02-26T01:05:01;3.80;99.90
7204;DHT22;3643;52.460;13.322;2024-02-26T01:07:31;3.50;99.90
7204;DHT22;3643;52.460;13.322;2024-02-26T01:10:04;3.60;99.90
7204;DHT22;3643;52.460;13.322;2024-02-26T01:12:32;3.50;99.90
7204;DHT22;3643;52.460;13.322;2024-02-26T01:15:00;3.60;99.90
7204;DHT22;3643;52.460;13.322;2024-02-26T01:17:30;3.60;99.90
7204;DHT22;3643;52.460;13.322;2024-02-26T01:19:58;3.60;99.90
7204;DHT22;3643;52.460;13.322;2024-02-26T01:22:26;3.50;99.90
7204;DHT22;3643;52.460;13.322;2024-02-26T01:24:55;3.40;99.90
7204;DHT22;3643;52.460;13.322;2024-02-26T01:27:23;3.40;99.90
7204;DHT22;3643;52.460;13.322;2024-02-26T01:29:53;3.40;99.90
7204;DHT22;3643;52.460;13.322;2024-02-26T01:32:22;3.30;99.90
7204;DHT22;3643;52.460;13.322;2024-02-26T01:34:50;3.20;99.90
7204;DHT22;3643;52.460;13.322;2024-02-26T01:37:18;3.20;99.90
7204;DHT22;3643;52.460;13.322;2024-02-26T01:39:46;3.10;99.90
7204;DHT22;3643;52.460;13.322;2024-02-26T01:42:15;3.10;99.90
7204;DHT22;3643;52.460;13.322;2024-02-26T01:44:43;3.10;99.90
7204;DHT22;3643;52.460;13.322;2024-02-26T01:47:13;3.00;99.90
7204;DHT22;3643;52.460;13.322;2024-02-26T01:49:41;3.10;99.90
7204;DHT22;3643;52.460;13.322;2024-02-26T01:52:09;3.00;99.90
7204;DHT22;3643;52.460;13.322;2024-02-26T01:54:38;3.00;99.90
7204;DHT22;3643;52.460;13.322;2024-02-26T01:57:08;3.10;99.90
7204;DHT22;3643;52.460;13.322;2024-02-26T01:59:40;3.10;99.90
7204;DHT22;3643;52.460;13.322;2024-02-26T02:02:10;3.20;99.90
7204;DHT22;3643;52.460;13.322;2024-02-26T02:04:39;3.20;99.90
7204;DHT22;3643;52.460;13.322;2024-02-26T02:07:07;3.30;99.90
7204;DHT22;3643;52.460;13.322;2024-02-26T02:09:36;3.30;99.90
7204;DHT22;3643;52.460;13.322;2024-02-26T02:12:04;3.30;99.90
7204;DHT22;3643;52.460;13.322;2024-02-26T02:14:33;3.30;99.90
7204;DHT22;3643;52.460;13.322;2024-02-26T02:17:03;3.30;99.90
7204;DHT22;3643;52.460;13.322;2024-02-26T02:19:31;3.30;99.90
7204;DHT22;3643;52.460;13.322;2024-02-26T02:22:01;3.30;99.90
7204;DHT22;3643;52.460;13.322;2024-02-26T02:24:29;3.30;99.90
7204;DHT22;3643;52.460;13.322;2024-02-26T02:26:57;3.30;99.90
7204;DHT22;3643;52.460;13.322;2024-02-26T02:29:25;3.30;99.90
7204;DHT22;3643;52.460;13.322;2024-02-26T02:31:54;3.30;99.90
7204;DHT22;3643;52.460;13.322;2024-02-26T02:34:22;3.20;99.90
7204;DHT22;3643;52.460;13.322;2024-02-26T02:36:52;3.20;99.90
7204;DHT22;3643;52.460;13.322;2024-02-26T02:39:21;3.20;99.90
7204;DHT22;3643;52.460;13.322;2024-02-26T02:41:50;3.20;99.90
7204;DHT22;3643;52.460;13.322;2024-02-26T02:44:17;3.20;99.90
7204;DHT22;3643;52.460;13.322;2024-02-26T02:46:45;3.20;99.90
7204;DHT22;3643;52.460;13.322;2024-02-26T02:49:13;3.20;99.90
7204;DHT22;3643;52.460;13.322;2024-02-26T02:51:42;3.10;99.90
7204;DHT22;3643;52.460;13.322;2024-02-26T02:54:11;3.00;99.90
7204;DHT22;3643;52.460;13.322;2024-02-26T02:56:40;3.00;99.90
7204;DHT22;3643;52.460;13.322;2024-02-26T02:59:08;3.00;99.90
7204;DHT22;3643;52.460;13.322;2024-02-26T03:01:36;2.90;99.90
7204;DHT22;3643;52.460;13.322;2024-02-26T03:04:04;2.90;99.90
7204;DHT22;3643;52.460;13.322;2024-02-26T03:06:32;2.80;99.90
7204;DHT22;3643;52.460;13.322;2024-02-26T03:09:00;2.80;99.90
7204;DHT22;3643;52.460;13.322;2024-02-26T03:11:29;2.70;99.90
7204;DHT22;3643;52.460;13.322;2024-02-26T03:13:58;2.70;99.90
7204;DHT22;3643;52.460;13.322;2024-02-26T03:16:26;2.70;99.90
7204;DHT22;3643;52.460;13.322;2024-02-26T03:18:54;2.70;99.90
7204;DHT22;3643;52.460;13.322;2024-02-26T03:21:24;2.60;99.90
7204;DHT22;3643;52.460;13.322;2024-02-26T03:23:53;2.60;99.90
7204;DHT22;3643;52.460;13.322;2024-02-26T03:26:21;2.60;99.90
7204;DHT22;3643;52.460;13.322;2024-02-26T03:28:49;2.60;99.90
7204;DHT22;3643;52.460;13.322;2024-02-26T03:31:18;2.60;99.90
7204;DHT22;3643;52.460;13.322;2024-02-26T03:33:48;2.70;99.90
7204;DHT22;3643;52.460;13.322;2024-02-26T03:36:16;2.60;99.90
7204;DHT22;3643;52.460;13.322;2024-02-26T03:38:44;2.70;99.90
7204;DHT22;3643;52.460;13.322;2024-02-26T03:41:13;2.60;99.90
7204;DHT22;3643;52.460;13.322;2024-02-26T03:43:42;2.60;99.90
7204;DHT22;3643;52.460;13.322;2024-02-26T03:46:12;2.60;99.90
7204;DHT22;3643;52.460;13.322;2024-02-26T03:48:42;2.50;99.90
7204;DHT22;3643;52.460;13.322;2024-02-26T03:51:10;2.50;99.90
7204;DHT22;3643;52.460;13.322;2024-02-26T03:53:38;2.50;99.90
7204;DHT22;3643;52.460;13.322;2024-02-26T03:56:07;2.50;99.90
7204;DHT22;3643;52.460;13.322;2024-02-26T03:58:35;2.40;99.90
7204;DHT22;3643;52.460;13.322;2024-02-26T04:01:03;2.40;99.90
7204;DHT22;3643;52.460;13.322;2024-02-26T04:03:31;2.40;99.90
7204;DHT22;3643;52.460;13.322;2024-02-26T04:06:01;2.30;99.90
7204;DHT22;3643;52.460;13.322;2024-02-26T04:08:29;2.30;99.90
7204;DHT22;3643;52.460;13.322;2024-02-26T04:10:57;2.50;99.90
7204;DHT22;3643;52.460;13.322;2024-02-26T04:13:25;2.30;99.90
7204;DHT22;3643;52.460;13.322;2024-02-26T04:15:53;2.20;99.90
7204;DHT22;3643;52.460;13.322;2024-02-26T04:18:21;2.20;99.90
7204;DHT22;3643;52.460;13.322;2024-02-26T04:20:49;2.20;99.90
7204;DHT22;3643;52.460;13.322;2024-02-26T04:23:19;2.20;99.90
7204;DHT22;3643;52.460;13.322;2024-02-26T04:25:47;2.20;99.90
7204;DHT22;3643;52.460;13.322;2024-02-26T04:28:15;2.20;99.90
7204;DHT22;3643;52.460;13.322;2024-02-26T04:30:44;2.20;99.90
7204;DHT22;3643;52.460;13.322;2024-02-26T04:33:12;2.20;99.90
7204;DHT22;3643;52.460;13.322;2024-02-26T04:35:40;2.20;99.90
7204;DHT22;3643;52.460;13.322;2024-02-26T04:38:08;2.10;99.90
7204;DHT22;3643;52.460;13.322;2024-02-26T04:40:37;2.20;99.90
7204;DHT22;3643;52.460;13.322;2024-02-26T04:43:05;2.10;99.90
7204;DHT22;3643;52.460;13.322;2024-02-26T04:45:33;2.10;99.90
7204;DHT22;3643;52.460;13.322;2024-02-26T04:48:02;2.20;99.90
7204;DHT22;3643;52.460;13.322;2024-02-26T04:50:30;2.20;99.90
7204;DHT22;3643;52.460;13.322;2024-02-26T04:52:58;2.20;99.90
7204;DHT22;3643;52.460;13.322;2024-02-26T04:55:26;2.30;99.90
7204;DHT22;3643;52.460;13.322;2024-02-26T04:57:55;2.30;99.90
7204;DHT22;3643;52.460;13.322;2024-02-26T05:00:23;2.40;99.90
7204;DHT22;3643;52.460;13.322;2024-02-26T05:02:51;2.40;99.90
7204;DHT22;3643;52.460;13.322;2024-02-26T05:05:19;2.40;99.90
7204;DHT22;3643;52.460;13.322;2024-02-26T05:07:47;2.40;99.90
7204;DHT22;3643;52.460;13.322;2024-02-26T05:10:15;2.40;99.90
7204;DHT22;3643;52.460;13.322;2024-02-26T05:12:43;2.30;99.90
7204;DHT22;3643;52.460;13.322;2024-02-26T05:15:13;2.30;99.90
7204;DHT22;3643;52.460;13.322;2024-02-26T05:17:45;2.30;99.90
7204;DHT22;3643;52.460;13.322;2024-02-26T05:20:13;2.30;99.90
7204;DHT22;3643;52.460;13.322;2024-02-26T05:22:42;2.30;99.90
7204;DHT22;3643;52.460;13.322;2024-02-26T05:25:10;2.30;99.90
7204;DHT22;3643;52.460;13.322;2024-02-26T05:27:38;2.30;99.90
7204;DHT22;3643;52.460;13.322;2024-02-26T05:30:08;2.30;99.90
7204;DHT22;3643;52.460;13.322;2024-02-26T05:32:38;2.40;99.90
7204;DHT22;3643;52.460;13.322;2024-02-26T05:35:07;2.60;99.90
7204;DHT22;3643;52.460;13.322;2024-02-26T05:37:35;2.40;99.90
7204;DHT22;3643;52.460;13.322;2024-02-26T05:40:04;2.30;99.90
7204;DHT22;3643;52.460;13.322;2024-02-26T05:42:32;2.40;99.90
7204;DHT22;3643;52.460;13.322;2024-02-26T05:45:01;2.30;99.90
7204;DHT22;3643;52.460;13.322;2024-02-26T05:47:33;2.30;99.90
7204;DHT22;3643;52.460;13.322;2024-02-26T05:50:02;2.40;99.90
7204;DHT22;3643;52.460;13.322;2024-02-26T05:52:30;2.40;99.90
7204;DHT22;3643;52.460;13.322;2024-02-26T05:54:59;2.40;99.90
7204;DHT22;3643;52.460;13.322;2024-02-26T05:57:27;2.40;99.90
7204;DHT22;3643;52.460;13.322;2024-02-26T05:59:55;2.80;99.90
7204;DHT22;3643;52.460;13.322;2024-02-26T06:02:23;2.50;99.90
7204;DHT22;3643;52.460;13.322;2024-02-26T06:04:51;2.50;99.90
7204;DHT22;3643;52.460;13.322;2024-02-26T06:07:21;2.60;99.90
7204;DHT22;3643;52.460;13.322;2024-02-26T06:09:49;2.60;99.90
7204;DHT22;3643;52.460;13.322;2024-02-26T06:12:17;2.60;99.90
7204;DHT22;3643;52.460;13.322;2024-02-26T06:14:45;2.70;99.90
7204;DHT22;3643;52.460;13.322;2024-02-26T06:17:13;2.70;99.90
7204;DHT22;3643;52.460;13.322;2024-02-26T06:19:41;2.80;99.90
7204;DHT22;3643;52.460;13.322;2024-02-26T06:22:09;2.80;99.90
7204;DHT22;3643;52.460;13.322;2024-02-26T06:24:39;2.90;99.90
7204;DHT22;3643;52.460;13.322;2024-02-26T06:27:07;2.90;99.90
7204;DHT22;3643;52.460;13.322;2024-02-26T06:29:35;3.00;99.90
7204;DHT22;3643;52.460;13.322;2024-02-26T06:32:04;3.10;99.90
7204;DHT22;3643;52.460;13.322;2024-02-26T06:34:32;3.20;99.90
7204;DHT22;3643;52.460;13.322;2024-02-26T06:37:00;3.30;99.90
7204;DHT22;3643;52.460;13.322;2024-02-26T06:39:28;3.30;99.90
7204;DHT22;3643;52.460;13.322;2024-02-26T06:41:58;3.40;99.90
7204;DHT22;3643;52.460;13.322;2024-02-26T06:44:28;3.50;99.90
7204;DHT22;3643;52.460;13.322;2024-02-26T06:46:58;3.60;99.90
7204;DHT22;3643;52.460;13.322;2024-02-26T06:49:27;3.80;99.90
7204;DHT22;3643;52.460;13.322;2024-02-26T06:55:10;4.00;99.90
7204;DHT22;3643;52.460;13.322;2024-02-26T06:57:40;4.90;99.90
7204;DHT22;3643;52.460;13.322;2024-02-26T07:00:09;5.80;99.90
7204;DHT22;3643;52.460;13.322;2024-02-26T07:02:42;6.60;99.90
7204;DHT22;3643;52.460;13.322;2024-02-26T07:05:10;7.20;99.90
7204;DHT22;3643;52.460;13.322;2024-02-26T07:07:38;7.80;99.90
7204;DHT22;3643;52.460;13.322;2024-02-26T07:10:07;8.50;99.90
7204;DHT22;3643;52.460;13.322;2024-02-26T07:12:35;9.30;99.90
7204;DHT22;3643;52.460;13.322;2024-02-26T07:15:05;9.90;99.90
7204;DHT22;3643;52.460;13.322;2024-02-26T07:17:35;10.20;99.90
7204;DHT22;3643;52.460;13.322;2024-02-26T07:20:03;10.50;99.90
7204;DHT22;3643;52.460;13.322;2024-02-26T07:22:36;10.90;99.90
7204;DHT22;3643;52.460;13.322;2024-02-26T07:25:04;11.20;99.90
7204;DHT22;3643;52.460;13.322;2024-02-26T07:27:34;11.50;99.90
7204;DHT22;3643;52.460;13.322;2024-02-26T07:30:05;11.60;99.90
7204;DHT22;3643;52.460;13.322;2024-02-26T07:32:33;11.30;99.90
7204;DHT22;3643;52.460;13.322;2024-02-26T07:35:01;10.10;99.90
7204;DHT22;3643;52.460;13.322;2024-02-26T07:37:29;9.20;99.90
7204;DHT22;3643;52.460;13.322;2024-02-26T07:39:57;8.40;99.90
7204;DHT22;3643;52.460;13.322;2024-02-26T07:42:25;7.70;99.90
7204;DHT22;3643;52.460;13.322;2024-02-26T07:44:53;7.30;99.90
7204;DHT22;3643;52.460;13.322;2024-02-26T07:47:23;7.10;99.90
7204;DHT22;3643;52.460;13.322;2024-02-26T07:49:51;7.00;99.90
7204;DHT22;3643;52.460;13.322;2024-02-26T07:52:19;6.80;99.90
7204;DHT22;3643;52.460;13.322;2024-02-26T07:54:47;6.70;99.90
7204;DHT22;3643;52.460;13.322;2024-02-26T07:57:15;6.70;99.90
7204;DHT22;3643;52.460;13.322;2024-02-26T07:59:44;6.60;99.90
7204;DHT22;3643;52.460;13.322;2024-02-26T08:02:16;6.50;99.90
7204;DHT22;3643;52.460;13.322;2024-02-26T08:04:46;6.90;99.90
7204;DHT22;3643;52.460;13.322;2024-02-26T08:07:14;6.50;99.90
7204;DHT22;3643;52.460;13.322;2024-02-26T08:09:43;6.50;99.90
7204;DHT22;3643;52.460;13.322;2024-02-26T08:12:13;6.40;99.90
7204;DHT22;3643;52.460;13.322;2024-02-26T08:14:41;6.50;99.90
7204;DHT22;3643;52.460;13.322;2024-02-26T08:17:09;6.50;99.90
7204;DHT22;3643;52.460;13.322;2024-02-26T08:19:37;6.70;99.90
7204;DHT22;3643;52.460;13.322;2024-02-26T08:22:07;6.70;99.90
7204;DHT22;3643;52.460;13.322;2024-02-26T08:24:36;6.90;99.90
7204;DHT22;3643;52.460;13.322;2024-02-26T08:27:04;7.00;99.90
7204;DHT22;3643;52.460;13.322;2024-02-26T08:29:33;7.20;99.90
7204;DHT22;3643;52.460;13.322;2024-02-26T08:32:01;7.30;99.90
7204;DHT22;3643;52.460;13.322;2024-02-26T08:34:29;7.50;99.90
7204;DHT22;3643;52.460;13.322;2024-02-26T08:36:57;7.60;99.90
7204;DHT22;3643;52.460;13.322;2024-02-26T08:39:26;7.60;99.90
7204;DHT22;3643;52.460;13.322;2024-02-26T08:41:55;7.70;99.90
7204;DHT22;3643;52.460;13.322;2024-02-26T08:44:23;7.80;99.90
7204;DHT22;3643;52.460;13.322;2024-02-26T08:46:52;7.70;99.90
7204;DHT22;3643;52.460;13.322;2024-02-26T08:49:20;7.80;99.90
7204;DHT22;3643;52.460;13.322;2024-02-26T08:51:50;8.00;99.90
7204;DHT22;3643;52.460;13.322;2024-02-26T08:54:18;8.10;99.90
7204;DHT22;3643;52.460;13.322;2024-02-26T08:56:48;8.00;99.90
7204;DHT22;3643;52.460;13.322;2024-02-26T08:59:16;8.10;99.90
7204;DHT22;3643;52.460;13.322;2024-02-26T09:01:49;8.10;99.90
7204;DHT22;3643;52.460;13.322;2024-02-26T09:04:17;8.20;99.90
7204;DHT22;3643;52.460;13.322;2024-02-26T09:06:45;8.50;99.90
7204;DHT22;3643;52.460;13.322;2024-02-26T09:09:15;8.20;99.90
7204;DHT22;3643;52.460;13.322;2024-02-26T09:11:43;8.30;99.90
7204;DHT22;3643;52.460;13.322;2024-02-26T09:14:13;8.40;99.90
7204;DHT22;3643;52.460;13.322;2024-02-26T09:16:40;8.30;99.90
7204;DHT22;3643;52.460;13.322;2024-02-26T09:19:09;8.30;99.90
7204;DHT22;3643;52.460;13.322;2024-02-26T09:21:42;8.30;99.90
7204;DHT22;3643;52.460;13.322;2024-02-26T09:24:10;8.20;99.90
7204;DHT22;3643;52.460;13.322;2024-02-26T09:26:39;8.20;99.90
7204;DHT22;3643;52.460;13.322;2024-02-26T09:29:07;8.20;99.90
7204;DHT22;3643;52.460;13.322;2024-02-26T09:31:37;8.20;99.90
7204;DHT22;3643;52.460;13.322;2024-02-26T09:34:06;8.20;99.90
7204;DHT22;3643;52.460;13.322;2024-02-26T09:36:35;8.20;99.90
7204;DHT22;3643;52.460;13.322;2024-02-26T09:39:03;8.10;99.90
7204;DHT22;3643;52.460;13.322;2024-02-26T09:41:31;8.20;99.90
7204;DHT22;3643;52.460;13.322;2024-02-26T09:44:02;8.30;99.90
7204;DHT22;3643;52.460;13.322;2024-02-26T09:46:32;8.50;99.90
7204;DHT22;3643;52.460;13.322;2024-02-26T09:49:02;8.70;99.90
7204;DHT22;3643;52.460;13.322;2024-02-26T09:51:31;8.90;99.90
7204;DHT22;3643;52.460;13.322;2024-02-26T09:54:00;9.00;99.90
7204;DHT22;3643;52.460;13.322;2024-02-26T09:56:32;9.40;99.90
7204;DHT22;3643;52.460;13.322;2024-02-26T09:59:01;9.20;99.90
7204;DHT22;3643;52.460;13.322;2024-02-26T10:01:30;9.40;99.90
7204;DHT22;3643;52.460;13.322;2024-02-26T10:04:03;9.60;99.90
7204;DHT22;3643;52.460;13.322;2024-02-26T10:06:32;9.50;99.90
7204;DHT22;3643;52.460;13.322;2024-02-26T10:09:00;9.60;99.90
7204;DHT22;3643;52.460;13.322;2024-02-26T10:11:32;9.70;99.90
7204;DHT22;3643;52.460;13.322;2024-02-26T10:14:03;9.80;99.90
7204;DHT22;3643;52.460;13.322;2024-02-26T10:16:31;9.80;99.90
7204;DHT22;3643;52.460;13.322;2024-02-26T10:19:01;9.90;99.90
7204;DHT22;3643;52.460;13.322;2024-02-26T10:21:29;10.00;99.90
7204;DHT22;3643;52.460;13.322;2024-02-26T10:23:57;10.10;99.90
7204;DHT22;3643;52.460;13.322;2024-02-26T10:26:26;10.10;99.90
7204;DHT22;3643;52.460;13.322;2024-02-26T10:28:59;10.20;99.90
7204;DHT22;3643;52.460;13.322;2024-02-26T10:31:29;10.20;99.90
7204;DHT22;3643;52.460;13.322;2024-02-26T10:33:57;10.30;99.90
7204;DHT22;3643;52.460;13.322;2024-02-26T10:36:33;10.40;99.90
7204;DHT22;3643;52.460;13.322;2024-02-26T10:39:14;10.30;99.90
7204;DHT22;3643;52.460;13.322;2024-02-26T10:41:44;10.30;99.90
7204;DHT22;3643;52.460;13.322;2024-02-26T10:44:12;10.30;99.90
7204;DHT22;3643;52.460;13.322;2024-02-26T10:46:46;10.40;99.90
7204;DHT22;3643;52.460;13.322;2024-02-26T10:49:16;10.40;99.90
7204;DHT22;3643;52.460;13.322;2024-02-26T10:51:54;10.50;99.90
7204;DHT22;3643;52.460;13.322;2024-02-26T10:54:25;10.60;99.90
7204;DHT22;3643;52.460;13.322;2024-02-26T10:56:56;10.60;99.90
7204;DHT22;3643;52.460;13.322;2024-02-26T10:59:25;10.70;99.90
7204;DHT22;3643;52.460;13.322;2024-02-26T11:01:54;10.70;99.90
7204;DHT22;3643;52.460;13.322;2024-02-26T11:04:23;10.80;99.90
7204;DHT22;3643;52.460;13.322;2024-02-26T11:06:57;10.70;99.90
7204;DHT22;3643;52.460;13.322;2024-02-26T11:09:25;10.80;99.90
7204;DHT22;3643;52.460;13.322;2024-02-26T11:11:54;10.90;99.90
7204;DHT22;3643;52.460;13.322;2024-02-26T11:14:23;11.00;99.90
7204;DHT22;3643;52.460;13.322;2024-02-26T11:16:54;11.30;99.90
7204;DHT22;3643;52.460;13.322;2024-02-26T11:19:24;11.20;99.90
7204;DHT22;3643;52.460;13.322;2024-02-26T11:21:56;11.30;99.90
7204;DHT22;3643;52.460;13.322;2024-02-26T11:24:29;11.30;99.90
7204;DHT22;3643;52.460;13.322;2024-02-26T11:26:59;11.50;99.90
7204;DHT22;3643;52.460;13.322;2024-02-26T11:29:32;11.50;99.90
7204;DHT22;3643;52.460;13.322;2024-02-26T11:32:02;11.50;99.90
7204;DHT22;3643;52.460;13.322;2024-02-26T11:34:30;11.50;99.90
7204;DHT22;3643;52.460;13.322;2024-02-26T11:37:09;11.50;99.90
7204;DHT22;3643;52.460;13.322;2024-02-26T11:39:39;11.60;99.90
7204;DHT22;3643;52.460;13.322;2024-02-26T11:42:08;11.70;99.90
7204;DHT22;3643;52.460;13.322;2024-02-26T11:44:37;11.70;99.90
7204;DHT22;3643;52.460;13.322;2024-02-26T11:47:12;11.70;99.90
7204;DHT22;3643;52.460;13.322;2024-02-26T11:49:40;12.10;99.90
7204;DHT22;3643;52.460;13.322;2024-02-26T11:52:10;11.70;99.90
7204;DHT22;3643;52.460;13.322;2024-02-26T11:54:43;11.90;99.90
7204;DHT22;3643;52.460;13.322;2024-02-26T11:57:25;11.80;99.90
7204;DHT22;3643;52.460;13.322;2024-02-26T11:59:54;11.80;99.90
7204;DHT22;3643;52.460;13.322;2024-02-26T12:02:40;11.90;99.90
7204;DHT22;3643;52.460;13.322;2024-02-26T12:05:12;11.80;99.90
7204;DHT22;3643;52.460;13.322;2024-02-26T12:07:46;11.80;99.90
7204;DHT22;3643;52.460;13.322;2024-02-26T12:10:20;12.10;99.90
7204;DHT22;3643;52.460;13.322;2024-02-26T12:12:49;11.90;99.90
7204;DHT22;3643;52.460;13.322;2024-02-26T12:15:22;12.00;99.90
7204;DHT22;3643;52.460;13.322;2024-02-26T12:17:51;12.60;99.90
7204;DHT22;3643;52.460;13.322;2024-02-26T12:20:20;12.30;99.90
7204;DHT22;3643;52.460;13.322;2024-02-26T12:22:50;12.30;99.90
7204;DHT22;3643;52.460;13.322;2024-02-26T12:25:21;12.30;99.90
7204;DHT22;3643;52.460;13.322;2024-02-26T12:27:49;12.30;99.90
7204;DHT22;3643;52.460;13.322;2024-02-26T12:30:18;12.40;99.90
7204;DHT22;3643;52.460;13.322;2024-02-26T12:32:46;12.30;99.90
7204;DHT22;3643;52.460;13.322;2024-02-26T12:35:15;12.20;99.90
7204;DHT22;3643;52.460;13.322;2024-02-26T12:37:44;12.30;99.90
7204;DHT22;3643;52.460;13.322;2024-02-26T12:40:14;12.40;99.90
7204;DHT22;3643;52.460;13.322;2024-02-26T12:42:42;12.50;99.90
7204;DHT22;3643;52.460;13.322;2024-02-26T12:45:11;12.60;99.90
7204;DHT22;3643;52.460;13.322;2024-02-26T12:47:39;12.60;99.90
7204;DHT22;3643;52.460;13.322;2024-02-26T12:50:08;12.60;99.90
7204;DHT22;3643;52.460;13.322;2024-02-26T12:52:39;12.60;99.90
7204;DHT22;3643;52.460;13.322;2024-02-26T12:55:07;12.60;99.90
7204;DHT22;3643;52.460;13.322;2024-02-26T12:57:38;12.50;99.90
7204;DHT22;3643;52.460;13.322;2024-02-26T13:00:08;12.40;99.90
7204;DHT22;3643;52.460;13.322;2024-02-26T13:02:38;12.40;99.90
7204;DHT22;3643;52.460;13.322;2024-02-26T13:05:07;12.30;99.90
7204;DHT22;3643;52.460;13.322;2024-02-26T13:07:41;12.40;99.90
7204;DHT22;3643;52.460;13.322;2024-02-26T13:10:10;12.50;99.90
7204;DHT22;3643;52.460;13.322;2024-02-26T13:12:43;12.40;99.90
7204;DHT22;3643;52.460;13.322;2024-02-26T13:15:15;12.60;99.90
7204;DHT22;3643;52.460;13.322;2024-02-26T13:17:43;12.60;99.90
7204;DHT22;3643;52.460;13.322;2024-02-26T13:20:12;12.50;99.90
7204;DHT22;3643;52.460;13.322;2024-02-26T13:22:41;12.40;99.90
7204;DHT22;3643;52.460;13.322;2024-02-26T13:25:09;12.40;99.90
7204;DHT22;3643;52.460;13.322;2024-02-26T13:27:37;12.40;99.90
7204;DHT22;3643;52.460;13.322;2024-02-26T13:30:09;12.40;99.90
7204;DHT22;3643;52.460;13.322;2024-02-26T13:32:39;12.40;99.90
7204;DHT22;3643;52.460;13.322;2024-02-26T13:35:09;12.50;99.90
7204;DHT22;3643;52.460;13.322;2024-02-26T13:37:38;12.40;99.90
7204;DHT22;3643;52.460;13.322;2024-02-26T13:40:08;12.40;99.90
7204;DHT22;3643;52.460;13.322;2024-02-26T13:42:36;12.40;99.90
7204;DHT22;3643;52.460;13.322;2024-02-26T13:45:07;12.40;99.90
7204;DHT22;3643;52.460;13.322;2024-02-26T13:47:35;12.30;99.90
7204;DHT22;3643;52.460;13.322;2024-02-26T13:50:04;12.30;99.90
7204;DHT22;3643;52.460;13.322;2024-02-26T13:52:32;12.30;99.90
7204;DHT22;3643;52.460;13.322;2024-02-26T13:55:01;12.40;99.90
7204;DHT22;3643;52.460;13.322;2024-02-26T13:57:29;12.40;99.90
7204;DHT22;3643;52.460;13.322;2024-02-26T13:59:57;12.40;99.90
7204;DHT22;3643;52.460;13.322;2024-02-26T14:02:27;12.30;99.90
7204;DHT22;3643;52.460;13.322;2024-02-26T14:04:55;12.30;99.90
7204;DHT22;3643;52.460;13.322;2024-02-26T14:07:23;12.20;99.90
7204;DHT22;3643;52.460;13.322;2024-02-26T14:09:52;12.30;99.90
7204;DHT22;3643;52.460;13.322;2024-02-26T14:12:20;12.40;99.90
7204;DHT22;3643;52.460;13.322;2024-02-26T14:14:50;12.30;99.90
7204;DHT22;3643;52.460;13.322;2024-02-26T14:17:20;12.30;99.90
7204;DHT22;3643;52.460;13.322;2024-02-26T14:19:49;12.30;99.90
7204;DHT22;3643;52.460;13.322;2024-02-26T14:22:17;12.30;99.90
7204;DHT22;3643;52.460;13.322;2024-02-26T14:24:46;12.20;99.90
7204;DHT22;3643;52.460;13.322;2024-02-26T14:27:14;12.20;99.90
7204;DHT22;3643;52.460;13.322;2024-02-26T14:29:43;12.10;99.90
7204;DHT22;3643;52.460;13.322;2024-02-26T14:32:11;12.10;99.90
7204;DHT22;3643;52.460;13.322;2024-02-26T14:34:39;12.00;99.90
7204;DHT22;3643;52.460;13.322;2024-02-26T14:37:08;11.00;99.90
7204;DHT22;3643;52.460;13.322;2024-02-26T14:39:37;11.90;99.90
7204;DHT22;3643;52.460;13.322;2024-02-26T14:42:06;11.90;99.90
7204;DHT22;3643;52.460;13.322;2024-02-26T14:44:34;11.80;99.90
7204;DHT22;3643;52.460;13.322;2024-02-26T14:47:03;11.80;99.90
7204;DHT22;3643;52.460;13.322;2024-02-26T14:49:31;11.70;99.90
7204;DHT22;3643;52.460;13.322;2024-02-26T14:51:59;11.70;99.90
7204;DHT22;3643;52.460;13.322;2024-02-26T14:54:31;11.80;99.90
7204;DHT22;3643;52.460;13.322;2024-02-26T14:57:04;11.90;99.90
7204;DHT22;3643;52.460;13.322;2024-02-26T14:59:33;11.60;99.90
7204;DHT22;3643;52.460;13.322;2024-02-26T15:02:03;11.60;99.90
7204;DHT22;3643;52.460;13.322;2024-02-26T15:04:31;11.60;99.90
7204;DHT22;3643;52.460;13.322;2024-02-26T15:06:59;11.80;99.90
7204;DHT22;3643;52.460;13.322;2024-02-26T15:09:28;11.60;99.90
7204;DHT22;3643;52.460;13.322;2024-02-26T15:11:57;11.50;99.90
7204;DHT22;3643;52.460;13.322;2024-02-26T15:14:25;11.50;99.90
7204;DHT22;3643;52.460;13.322;2024-02-26T15:16:53;11.40;99.90
7204;DHT22;3643;52.460;13.322;2024-02-26T15:19:21;11.40;99.90
7204;DHT22;3643;52.460;13.322;2024-02-26T15:21:49;11.40;99.90
7204;DHT22;3643;52.460;13.322;2024-02-26T15:24:17;11.20;99.90
7204;DHT22;3643;52.460;13.322;2024-02-26T15:26:45;11.10;99.90
7204;DHT22;3643;52.460;13.322;2024-02-26T15:29:15;11.10;99.90
7204;DHT22;3643;52.460;13.322;2024-02-26T15:31:43;11.00;99.90
7204;DHT22;3643;52.460;13.322;2024-02-26T15:34:11;11.00;99.90
7204;DHT22;3643;52.460;13.322;2024-02-26T15:36:40;11.00;99.90
7204;DHT22;3643;52.460;13.322;2024-02-26T15:39:08;11.00;99.90
7204;DHT22;3643;52.460;13.322;2024-02-26T15:41:36;11.00;99.90
7204;DHT22;3643;52.460;13.322;2024-02-26T15:44:06;10.90;99.90
7204;DHT22;3643;52.460;13.322;2024-02-26T15:46:40;10.90;99.90
7204;DHT22;3643;52.460;13.322;2024-02-26T15:49:08;10.80;99.90
7204;DHT22;3643;52.460;13.322;2024-02-26T15:51:42;10.80;99.90
7204;DHT22;3643;52.460;13.322;2024-02-26T15:54:10;10.80;99.90
7204;DHT22;3643;52.460;13.322;2024-02-26T15:56:40;10.70;99.90
7204;DHT22;3643;52.460;13.322;2024-02-26T15:59:09;10.60;99.90
7204;DHT22;3643;52.460;13.322;2024-02-26T16:01:40;10.60;99.90
7204;DHT22;3643;52.460;13.322;2024-02-26T16:04:08;10.50;99.90
7204;DHT22;3643;52.460;13.322;2024-02-26T16:06:39;10.50;99.90
7204;DHT22;3643;52.460;13.322;2024-02-26T16:09:08;10.40;99.90